Point Pleasant, NJ (08742)

5:51 AM EDT on September 21, 2014 (GMT -0400)
KNJPOINT5 | Change Station
CLOSE
Current Station
Personal Weather Station
Location: Point Pleasant Boro, NJ
Elevation: 30 ft
Nearby Weather Stations

Elev 30 ft 40.09 °N, 74.06 °W | Updated 19 seconds ago

Overcast
Overcast
67.3 °F
Feels Like 67.3 °F
N
0.0
Wind Variable Wind from South
Gusts 0.0 mph

Today
High -- | Low -- °F
--% Chance of Precip.
Yesterday
High -- | Low -- °F
Precip. -- in
6:42 AM 6:55 PM
Waning Crescent, 7% visible
Pressure 29.93 in
Visibility 1.8 miles
Clouds Overcast 200 ft
Dew Point 57 °F
Humidity 69%
Rainfall 0.04 in
Snow Depth Not available.
UV 0 out of 12
Pollen 3.40 out of 12
Air Quality Not available.
Flu Activity Not available.
METAR KBLM 210935Z AUTO 35003KT 1 3/4SM OVC002 19/17 A2993 RMK AO1

More Conditions Fewer Conditions

Pressure 29.93 in
Visibility 1.8 miles
Clouds Overcast 200 ft
Dew Point 57 °F
Humidity 69%
Rainfall 0.04 in
Snow Depth Not available.
UV 0 out of 12
Pollen 3.40 out of 12
Air Quality Not available.
Flu Activity Not available.
METAR KBLM 210935Z AUTO 35003KT 1 3/4SM OVC002 19/17 A2993 RMK AO1

More Conditions Fewer Conditions

10-Day Weather Forecast

Almanac

Astronomy

Sep. 21, 2014 Rise Set
Actual Time 6:42 AM EDT 6:55 PM EDT
Civil Twilight 6:15 AM EDT 7:22 PM EDT
Nautical Twilight 5:44 AM EDT 7:53 PM EDT
Astronomical Twilight 5:11 AM EDT 8:26 PM EDT
Moon 4:14 AM EDT 5:29 PM EDT
Length of Visible Light 13h 06m
Length of Day
12h 12m
Tomorrow will be 2m 37s shorter.
Waning Crescent, 7% of the Moon is Illuminated
Today
Waning Crescent
Sep 24
New
Oct 1
First Quarter
Oct 8
Full
Oct 15
Last Quarter

Today's Extremes

State Highs State Lows

Community

WunderPhotos

Upload Photos

1,755,106 photos uploaded!

Nearby

Snow Depth

Station Depth Elevation
No new snow has been reported.

Earthquake Activity

City Distance Mag. Time & Date
No recent earthquake activity has been reported nearby.
Minimum magnitude displayed is 2.5.

Coastal Water Temperatures

Place Temperature
Atlantic City, NJ 71.1 °F

Nearby Weather Stations